sensor_id;sensor_type;location;lat;lon;timestamp;temperature;humidity
15625;DHT22;7912;51.376;6.126;2023-02-04T00:00:18;11.60;99.90
15625;DHT22;7912;51.376;6.126;2023-02-04T00:02:47;11.60;99.90
15625;DHT22;7912;51.376;6.126;2023-02-04T00:05:16;11.60;99.90
15625;DHT22;7912;51.376;6.126;2023-02-04T00:07:44;11.60;99.90
15625;DHT22;7912;51.376;6.126;2023-02-04T00:10:11;11.60;99.90
15625;DHT22;7912;51.376;6.126;2023-02-04T00:12:39;11.50;99.90
15625;DHT22;7912;51.376;6.126;2023-02-04T00:15:06;11.50;99.90
15625;DHT22;7912;51.376;6.126;2023-02-04T00:17:34;11.50;99.90
15625;DHT22;7912;51.376;6.126;2023-02-04T00:20:01;11.50;99.90
15625;DHT22;7912;51.376;6.126;2023-02-04T00:22:28;11.50;99.90
15625;DHT22;7912;51.376;6.126;2023-02-04T00:24:55;11.50;99.90
15625;DHT22;7912;51.376;6.126;2023-02-04T00:27:23;11.50;99.90
15625;DHT22;7912;51.376;6.126;2023-02-04T00:29:50;11.50;99.90
15625;DHT22;7912;51.376;6.126;2023-02-04T00:32:17;11.50;99.90
15625;DHT22;7912;51.376;6.126;2023-02-04T00:34:44;11.40;99.90
15625;DHT22;7912;51.376;6.126;2023-02-04T00:37:11;11.40;99.90
15625;DHT22;7912;51.376;6.126;2023-02-04T00:39:38;11.40;99.90
15625;DHT22;7912;51.376;6.126;2023-02-04T00:42:06;11.40;99.90
15625;DHT22;7912;51.376;6.126;2023-02-04T00:44:33;11.40;99.90
15625;DHT22;7912;51.376;6.126;2023-02-04T00:47:02;11.40;99.90
15625;DHT22;7912;51.376;6.126;2023-02-04T00:49:32;11.40;99.90
15625;DHT22;7912;51.376;6.126;2023-02-04T00:52:00;11.40;99.90
15625;DHT22;7912;51.376;6.126;2023-02-04T00:54:28;11.40;99.90
15625;DHT22;7912;51.376;6.126;2023-02-04T00:56:55;11.30;99.90
15625;DHT22;7912;51.376;6.126;2023-02-04T00:59:23;11.30;99.90
15625;DHT22;7912;51.376;6.126;2023-02-04T01:01:50;11.30;99.90
15625;DHT22;7912;51.376;6.126;2023-02-04T01:04:18;11.20;99.90
15625;DHT22;7912;51.376;6.126;2023-02-04T01:06:45;11.30;99.90
15625;DHT22;7912;51.376;6.126;2023-02-04T01:09:12;11.20;99.90
15625;DHT22;7912;51.376;6.126;2023-02-04T01:11:40;11.20;99.90
15625;DHT22;7912;51.376;6.126;2023-02-04T01:14:07;11.20;99.90
15625;DHT22;7912;51.376;6.126;2023-02-04T01:16:35;11.20;99.90
15625;DHT22;7912;51.376;6.126;2023-02-04T01:19:06;11.20;99.90
15625;DHT22;7912;51.376;6.126;2023-02-04T01:21:33;11.10;99.90
15625;DHT22;7912;51.376;6.126;2023-02-04T01:24:00;11.10;99.90
15625;DHT22;7912;51.376;6.126;2023-02-04T01:26:27;11.10;99.90
15625;DHT22;7912;51.376;6.126;2023-02-04T01:28:55;11.10;99.90
15625;DHT22;7912;51.376;6.126;2023-02-04T01:31:22;11.10;99.90
15625;DHT22;7912;51.376;6.126;2023-02-04T01:33:49;11.10;99.90
15625;DHT22;7912;51.376;6.126;2023-02-04T01:36:17;11.00;99.90
15625;DHT22;7912;51.376;6.126;2023-02-04T01:38:48;11.00;99.90
15625;DHT22;7912;51.376;6.126;2023-02-04T01:41:16;11.00;99.90
15625;DHT22;7912;51.376;6.126;2023-02-04T01:43:48;10.90;99.90
15625;DHT22;7912;51.376;6.126;2023-02-04T01:46:15;10.90;99.90
15625;DHT22;7912;51.376;6.126;2023-02-04T01:48:43;10.90;99.90
15625;DHT22;7912;51.376;6.126;2023-02-04T01:51:14;10.80;99.90
15625;DHT22;7912;51.376;6.126;2023-02-04T01:53:45;10.80;99.90
15625;DHT22;7912;51.376;6.126;2023-02-04T01:56:18;10.80;99.90
15625;DHT22;7912;51.376;6.126;2023-02-04T01:58:47;10.70;99.90
15625;DHT22;7912;51.376;6.126;2023-02-04T02:01:38;10.70;99.90
15625;DHT22;7912;51.376;6.126;2023-02-04T02:04:13;10.60;99.90
15625;DHT22;7912;51.376;6.126;2023-02-04T02:06:47;10.60;99.90
15625;DHT22;7912;51.376;6.126;2023-02-04T02:09:18;10.60;99.90
15625;DHT22;7912;51.376;6.126;2023-02-04T02:11:46;10.50;99.90
15625;DHT22;7912;51.376;6.126;2023-02-04T02:14:14;10.50;99.90
15625;DHT22;7912;51.376;6.126;2023-02-04T02:16:41;10.40;99.90
15625;DHT22;7912;51.376;6.126;2023-02-04T02:19:12;10.40;99.90
15625;DHT22;7912;51.376;6.126;2023-02-04T02:21:52;10.40;99.90
15625;DHT22;7912;51.376;6.126;2023-02-04T02:24:31;10.30;99.90
15625;DHT22;7912;51.376;6.126;2023-02-04T02:27:06;10.30;99.90
15625;DHT22;7912;51.376;6.126;2023-02-04T02:29:40;10.30;99.90
15625;DHT22;7912;51.376;6.126;2023-02-04T02:32:09;10.30;99.90
15625;DHT22;7912;51.376;6.126;2023-02-04T02:34:40;10.30;99.90
15625;DHT22;7912;51.376;6.126;2023-02-04T02:37:09;10.30;99.90
15625;DHT22;7912;51.376;6.126;2023-02-04T02:39:37;10.20;99.90
15625;DHT22;7912;51.376;6.126;2023-02-04T02:42:06;10.30;99.90
15625;DHT22;7912;51.376;6.126;2023-02-04T02:44:35;10.30;99.90
15625;DHT22;7912;51.376;6.126;2023-02-04T02:47:02;10.20;99.90
15625;DHT22;7912;51.376;6.126;2023-02-04T02:49:30;10.30;99.90
15625;DHT22;7912;51.376;6.126;2023-02-04T02:51:59;10.30;99.90
15625;DHT22;7912;51.376;6.126;2023-02-04T02:54:28;10.30;99.90
15625;DHT22;7912;51.376;6.126;2023-02-04T02:56:57;10.30;99.90
15625;DHT22;7912;51.376;6.126;2023-02-04T02:59:26;10.30;99.90
15625;DHT22;7912;51.376;6.126;2023-02-04T03:01:56;10.30;99.90
15625;DHT22;7912;51.376;6.126;2023-02-04T03:04:29;10.40;99.90
15625;DHT22;7912;51.376;6.126;2023-02-04T03:06:59;10.40;99.90
15625;DHT22;7912;51.376;6.126;2023-02-04T03:09:28;10.40;99.90
15625;DHT22;7912;51.376;6.126;2023-02-04T03:11:55;10.40;99.90
15625;DHT22;7912;51.376;6.126;2023-02-04T03:14:23;10.40;99.90
15625;DHT22;7912;51.376;6.126;2023-02-04T03:16:52;10.40;99.90
15625;DHT22;7912;51.376;6.126;2023-02-04T03:19:25;10.40;99.90
15625;DHT22;7912;51.376;6.126;2023-02-04T03:21:55;10.40;99.90
15625;DHT22;7912;51.376;6.126;2023-02-04T03:24:23;10.40;99.90
15625;DHT22;7912;51.376;6.126;2023-02-04T03:26:50;10.40;99.90
15625;DHT22;7912;51.376;6.126;2023-02-04T03:29:18;10.30;99.90
15625;DHT22;7912;51.376;6.126;2023-02-04T03:35:08;10.30;99.90
15625;DHT22;7912;51.376;6.126;2023-02-04T03:41:45;10.20;99.90
15625;DHT22;7912;51.376;6.126;2023-02-04T03:44:12;10.20;99.90
15625;DHT22;7912;51.376;6.126;2023-02-04T03:46:40;10.10;99.90
15625;DHT22;7912;51.376;6.126;2023-02-04T03:49:07;10.10;99.90
15625;DHT22;7912;51.376;6.126;2023-02-04T03:51:34;10.10;99.90
15625;DHT22;7912;51.376;6.126;2023-02-04T03:54:02;10.10;99.90
15625;DHT22;7912;51.376;6.126;2023-02-04T03:56:29;10.00;99.90
15625;DHT22;7912;51.376;6.126;2023-02-04T03:58:56;10.00;99.90
15625;DHT22;7912;51.376;6.126;2023-02-04T04:01:24;10.00;99.90
15625;DHT22;7912;51.376;6.126;2023-02-04T04:03:51;10.00;99.90
15625;DHT22;7912;51.376;6.126;2023-02-04T04:06:18;10.00;99.90
15625;DHT22;7912;51.376;6.126;2023-02-04T04:08:45;9.90;99.90
15625;DHT22;7912;51.376;6.126;2023-02-04T04:11:13;9.90;99.90
15625;DHT22;7912;51.376;6.126;2023-02-04T04:13:40;9.90;99.90
15625;DHT22;7912;51.376;6.126;2023-02-04T04:16:07;9.90;99.90
15625;DHT22;7912;51.376;6.126;2023-02-04T04:18:35;9.90;99.90
15625;DHT22;7912;51.376;6.126;2023-02-04T04:21:02;9.90;99.90
15625;DHT22;7912;51.376;6.126;2023-02-04T04:23:29;9.90;99.90
15625;DHT22;7912;51.376;6.126;2023-02-04T04:25:57;9.90;99.90
15625;DHT22;7912;51.376;6.126;2023-02-04T04:28:24;9.90;99.90
15625;DHT22;7912;51.376;6.126;2023-02-04T04:30:51;9.90;99.90
15625;DHT22;7912;51.376;6.126;2023-02-04T04:33:18;9.90;99.90
15625;DHT22;7912;51.376;6.126;2023-02-04T04:35:46;9.80;99.90
15625;DHT22;7912;51.376;6.126;2023-02-04T04:38:13;9.80;99.90
15625;DHT22;7912;51.376;6.126;2023-02-04T04:40:40;9.80;99.90
15625;DHT22;7912;51.376;6.126;2023-02-04T04:43:07;9.80;99.90
15625;DHT22;7912;51.376;6.126;2023-02-04T04:45:34;9.80;99.90
15625;DHT22;7912;51.376;6.126;2023-02-04T04:48:01;9.80;99.90
15625;DHT22;7912;51.376;6.126;2023-02-04T04:50:29;9.80;99.90
15625;DHT22;7912;51.376;6.126;2023-02-04T04:52:57;9.80;99.90
15625;DHT22;7912;51.376;6.126;2023-02-04T04:55:24;9.80;99.90
15625;DHT22;7912;51.376;6.126;2023-02-04T04:57:51;9.80;99.90
15625;DHT22;7912;51.376;6.126;2023-02-04T05:00:19;9.80;99.90
15625;DHT22;7912;51.376;6.126;2023-02-04T05:02:47;9.80;99.90
15625;DHT22;7912;51.376;6.126;2023-02-04T05:05:14;9.80;99.90
15625;DHT22;7912;51.376;6.126;2023-02-04T05:07:42;9.90;99.90
15625;DHT22;7912;51.376;6.126;2023-02-04T05:10:09;9.80;99.90
15625;DHT22;7912;51.376;6.126;2023-02-04T05:12:36;9.90;99.90
15625;DHT22;7912;51.376;6.126;2023-02-04T05:15:04;9.90;99.90
15625;DHT22;7912;51.376;6.126;2023-02-04T05:17:32;9.90;99.90
15625;DHT22;7912;51.376;6.126;2023-02-04T05:20:00;9.90;99.90
15625;DHT22;7912;51.376;6.126;2023-02-04T05:22:27;9.90;99.90
15625;DHT22;7912;51.376;6.126;2023-02-04T05:24:54;9.90;99.90
15625;DHT22;7912;51.376;6.126;2023-02-04T05:27:22;9.90;99.90
15625;DHT22;7912;51.376;6.126;2023-02-04T05:29:49;9.90;99.90
15625;DHT22;7912;51.376;6.126;2023-02-04T05:32:16;9.90;99.90
15625;DHT22;7912;51.376;6.126;2023-02-04T05:34:43;9.90;99.90
15625;DHT22;7912;51.376;6.126;2023-02-04T05:37:11;9.90;99.90
15625;DHT22;7912;51.376;6.126;2023-02-04T05:39:38;9.90;99.90
15625;DHT22;7912;51.376;6.126;2023-02-04T05:42:05;10.00;99.90
15625;DHT22;7912;51.376;6.126;2023-02-04T05:44:32;9.90;99.90
15625;DHT22;7912;51.376;6.126;2023-02-04T05:47:00;9.90;99.90
15625;DHT22;7912;51.376;6.126;2023-02-04T05:49:27;9.90;99.90
15625;DHT22;7912;51.376;6.126;2023-02-04T05:51:54;10.00;99.90
15625;DHT22;7912;51.376;6.126;2023-02-04T05:54:21;10.00;99.90
15625;DHT22;7912;51.376;6.126;2023-02-04T05:56:49;10.00;99.90
15625;DHT22;7912;51.376;6.126;2023-02-04T05:59:17;10.00;99.90
15625;DHT22;7912;51.376;6.126;2023-02-04T06:01:44;10.00;99.90
15625;DHT22;7912;51.376;6.126;2023-02-04T06:04:11;10.00;99.90
15625;DHT22;7912;51.376;6.126;2023-02-04T06:06:42;10.00;99.90
15625;DHT22;7912;51.376;6.126;2023-02-04T06:09:10;10.00;99.90
15625;DHT22;7912;51.376;6.126;2023-02-04T06:11:37;10.00;99.90
15625;DHT22;7912;51.376;6.126;2023-02-04T06:14:05;10.10;99.90
15625;DHT22;7912;51.376;6.126;2023-02-04T06:16:32;10.10;99.90
15625;DHT22;7912;51.376;6.126;2023-02-04T06:19:00;10.00;99.90
15625;DHT22;7912;51.376;6.126;2023-02-04T06:21:27;10.10;99.90
15625;DHT22;7912;51.376;6.126;2023-02-04T06:23:54;10.10;99.90
15625;DHT22;7912;51.376;6.126;2023-02-04T06:26:22;10.10;99.90
15625;DHT22;7912;51.376;6.126;2023-02-04T06:28:49;10.10;99.90
15625;DHT22;7912;51.376;6.126;2023-02-04T06:31:19;10.10;99.90
15625;DHT22;7912;51.376;6.126;2023-02-04T06:33:46;10.10;99.90
15625;DHT22;7912;51.376;6.126;2023-02-04T06:36:13;10.10;99.90
15625;DHT22;7912;51.376;6.126;2023-02-04T06:38:40;10.10;99.90
15625;DHT22;7912;51.376;6.126;2023-02-04T06:41:08;10.10;99.90
15625;DHT22;7912;51.376;6.126;2023-02-04T06:43:35;10.10;99.90
15625;DHT22;7912;51.376;6.126;2023-02-04T06:46:02;10.20;99.90
15625;DHT22;7912;51.376;6.126;2023-02-04T06:48:30;10.20;99.90
15625;DHT22;7912;51.376;6.126;2023-02-04T06:50:57;10.20;99.90
15625;DHT22;7912;51.376;6.126;2023-02-04T06:53:25;10.20;99.90
15625;DHT22;7912;51.376;6.126;2023-02-04T06:55:52;10.10;99.90
15625;DHT22;7912;51.376;6.126;2023-02-04T06:58:19;10.20;99.90
15625;DHT22;7912;51.376;6.126;2023-02-04T07:00:46;10.20;99.90
15625;DHT22;7912;51.376;6.126;2023-02-04T07:03:15;10.20;99.90
15625;DHT22;7912;51.376;6.126;2023-02-04T07:05:43;10.20;99.90
15625;DHT22;7912;51.376;6.126;2023-02-04T07:08:10;10.10;99.90
15625;DHT22;7912;51.376;6.126;2023-02-04T07:10:37;10.10;99.90
15625;DHT22;7912;51.376;6.126;2023-02-04T07:13:04;10.10;99.90
15625;DHT22;7912;51.376;6.126;2023-02-04T07:15:31;10.10;99.90
15625;DHT22;7912;51.376;6.126;2023-02-04T07:17:59;10.10;99.90
15625;DHT22;7912;51.376;6.126;2023-02-04T07:20:26;10.10;99.90
15625;DHT22;7912;51.376;6.126;2023-02-04T07:22:53;10.10;99.90
15625;DHT22;7912;51.376;6.126;2023-02-04T07:25:20;10.10;99.90
15625;DHT22;7912;51.376;6.126;2023-02-04T07:27:48;10.10;99.90
15625;DHT22;7912;51.376;6.126;2023-02-04T07:30:15;10.10;99.90
15625;DHT22;7912;51.376;6.126;2023-02-04T07:32:43;10.10;99.90
15625;DHT22;7912;51.376;6.126;2023-02-04T07:35:10;10.10;99.90
15625;DHT22;7912;51.376;6.126;2023-02-04T07:37:38;10.20;99.90
15625;DHT22;7912;51.376;6.126;2023-02-04T07:40:06;10.20;99.90
15625;DHT22;7912;51.376;6.126;2023-02-04T07:42:33;10.10;99.90
15625;DHT22;7912;51.376;6.126;2023-02-04T07:45:00;10.20;99.90
15625;DHT22;7912;51.376;6.126;2023-02-04T07:47:28;10.20;99.90
15625;DHT22;7912;51.376;6.126;2023-02-04T07:49:55;10.20;99.90
15625;DHT22;7912;51.376;6.126;2023-02-04T07:52:25;10.20;99.90
15625;DHT22;7912;51.376;6.126;2023-02-04T07:54:52;10.20;99.90
15625;DHT22;7912;51.376;6.126;2023-02-04T07:57:20;10.20;99.90
15625;DHT22;7912;51.376;6.126;2023-02-04T07:59:47;10.20;99.90
15625;DHT22;7912;51.376;6.126;2023-02-04T08:02:14;10.30;99.90
15625;DHT22;7912;51.376;6.126;2023-02-04T08:04:42;10.30;99.90
15625;DHT22;7912;51.376;6.126;2023-02-04T08:07:09;10.30;99.90
15625;DHT22;7912;51.376;6.126;2023-02-04T08:09:36;10.40;99.90
15625;DHT22;7912;51.376;6.126;2023-02-04T08:12:03;10.40;99.90
15625;DHT22;7912;51.376;6.126;2023-02-04T08:14:31;10.40;99.90
15625;DHT22;7912;51.376;6.126;2023-02-04T08:16:58;10.40;99.90
15625;DHT22;7912;51.376;6.126;2023-02-04T08:19:25;10.40;99.90
15625;DHT22;7912;51.376;6.126;2023-02-04T08:21:53;10.40;99.90
15625;DHT22;7912;51.376;6.126;2023-02-04T08:24:20;10.40;99.90
15625;DHT22;7912;51.376;6.126;2023-02-04T08:26:47;10.40;99.90
15625;DHT22;7912;51.376;6.126;2023-02-04T08:29:17;10.50;99.90
15625;DHT22;7912;51.376;6.126;2023-02-04T08:31:44;10.40;99.90
15625;DHT22;7912;51.376;6.126;2023-02-04T08:34:13;10.40;99.90
15625;DHT22;7912;51.376;6.126;2023-02-04T08:36:40;10.50;99.90
15625;DHT22;7912;51.376;6.126;2023-02-04T08:39:08;10.50;99.90
15625;DHT22;7912;51.376;6.126;2023-02-04T08:41:35;10.50;99.90
15625;DHT22;7912;51.376;6.126;2023-02-04T08:44:02;10.60;99.90
15625;DHT22;7912;51.376;6.126;2023-02-04T08:46:29;10.60;99.90
15625;DHT22;7912;51.376;6.126;2023-02-04T08:48:57;10.70;99.90
15625;DHT22;7912;51.376;6.126;2023-02-04T08:51:24;10.70;99.90
15625;DHT22;7912;51.376;6.126;2023-02-04T08:53:51;10.70;99.90
15625;DHT22;7912;51.376;6.126;2023-02-04T08:56:20;10.80;99.90
15625;DHT22;7912;51.376;6.126;2023-02-04T08:58:48;10.80;99.90
15625;DHT22;7912;51.376;6.126;2023-02-04T09:01:15;10.90;99.90
15625;DHT22;7912;51.376;6.126;2023-02-04T09:03:43;10.90;99.90
15625;DHT22;7912;51.376;6.126;2023-02-04T09:06:10;11.00;99.90
15625;DHT22;7912;51.376;6.126;2023-02-04T09:08:38;11.00;99.90
15625;DHT22;7912;51.376;6.126;2023-02-04T09:11:05;11.10;99.90
15625;DHT22;7912;51.376;6.126;2023-02-04T09:13:32;11.20;99.90
15625;DHT22;7912;51.376;6.126;2023-02-04T09:15:59;11.20;99.90
15625;DHT22;7912;51.376;6.126;2023-02-04T09:18:27;11.30;99.90
15625;DHT22;7912;51.376;6.126;2023-02-04T09:20:56;11.40;99.90
15625;DHT22;7912;51.376;6.126;2023-02-04T09:23:24;11.40;99.90
15625;DHT22;7912;51.376;6.126;2023-02-04T09:25:51;11.50;99.90
15625;DHT22;7912;51.376;6.126;2023-02-04T09:28:18;11.50;99.90
15625;DHT22;7912;51.376;6.126;2023-02-04T09:30:46;11.60;99.90
15625;DHT22;7912;51.376;6.126;2023-02-04T09:33:15;11.60;99.90
15625;DHT22;7912;51.376;6.126;2023-02-04T09:35:42;11.70;99.90
15625;DHT22;7912;51.376;6.126;2023-02-04T09:38:10;11.70;99.90
15625;DHT22;7912;51.376;6.126;2023-02-04T09:40:41;11.80;99.90
15625;DHT22;7912;51.376;6.126;2023-02-04T09:43:23;11.80;99.90
15625;DHT22;7912;51.376;6.126;2023-02-04T09:45:53;11.90;99.90
15625;DHT22;7912;51.376;6.126;2023-02-04T09:48:23;12.00;99.90
15625;DHT22;7912;51.376;6.126;2023-02-04T09:50:52;12.10;99.90
15625;DHT22;7912;51.376;6.126;2023-02-04T09:53:34;12.10;99.90
15625;DHT22;7912;51.376;6.126;2023-02-04T09:56:02;12.30;99.90
15625;DHT22;7912;51.376;6.126;2023-02-04T09:58:32;12.40;99.90
15625;DHT22;7912;51.376;6.126;2023-02-04T10:01:15;12.40;99.90
15625;DHT22;7912;51.376;6.126;2023-02-04T10:03:45;12.50;99.90
15625;DHT22;7912;51.376;6.126;2023-02-04T10:06:22;12.60;99.90
15625;DHT22;7912;51.376;6.126;2023-02-04T10:08:50;12.60;99.90
15625;DHT22;7912;51.376;6.126;2023-02-04T10:11:20;12.70;99.90
15625;DHT22;7912;51.376;6.126;2023-02-04T10:13:51;12.70;99.90
15625;DHT22;7912;51.376;6.126;2023-02-04T10:16:27;12.80;99.90
15625;DHT22;7912;51.376;6.126;2023-02-04T10:19:00;12.80;99.90
15625;DHT22;7912;51.376;6.126;2023-02-04T10:21:31;12.90;99.90
15625;DHT22;7912;51.376;6.126;2023-02-04T10:24:12;12.90;99.90
15625;DHT22;7912;51.376;6.126;2023-02-04T10:26:46;13.00;99.90
15625;DHT22;7912;51.376;6.126;2023-02-04T10:29:17;13.00;99.90
15625;DHT22;7912;51.376;6.126;2023-02-04T10:31:47;13.10;99.90
15625;DHT22;7912;51.376;6.126;2023-02-04T10:34:37;13.20;99.90
15625;DHT22;7912;51.376;6.126;2023-02-04T10:37:20;13.20;99.90
15625;DHT22;7912;51.376;6.126;2023-02-04T10:39:48;13.20;99.90
15625;DHT22;7912;51.376;6.126;2023-02-04T10:42:24;13.30;99.90
15625;DHT22;7912;51.376;6.126;2023-02-04T10:44:56;13.30;99.90
15625;DHT22;7912;51.376;6.126;2023-02-04T10:47:27;13.40;99.90
15625;DHT22;7912;51.376;6.126;2023-02-04T10:50:26;13.50;99.90
15625;DHT22;7912;51.376;6.126;2023-02-04T10:52:58;13.60;99.90
15625;DHT22;7912;51.376;6.126;2023-02-04T10:55:45;13.80;99.90
15625;DHT22;7912;51.376;6.126;2023-02-04T10:58:17;13.80;99.90
15625;DHT22;7912;51.376;6.126;2023-02-04T11:00:50;13.90;99.90
15625;DHT22;7912;51.376;6.126;2023-02-04T11:03:23;13.90;99.90
15625;DHT22;7912;51.376;6.126;2023-02-04T11:05:55;14.00;99.90
15625;DHT22;7912;51.376;6.126;2023-02-04T11:08:25;14.10;99.90
15625;DHT22;7912;51.376;6.126;2023-02-04T11:18:50;14.90;99.90
15625;DHT22;7912;51.376;6.126;2023-02-04T11:26:47;15.30;99.90
15625;DHT22;7912;51.376;6.126;2023-02-04T11:33:23;15.60;99.90
15625;DHT22;7912;51.376;6.126;2023-02-04T11:36:05;15.80;99.90
15625;DHT22;7912;51.376;6.126;2023-02-04T11:38:38;15.90;99.90
15625;DHT22;7912;51.376;6.126;2023-02-04T11:41:11;15.90;99.90
15625;DHT22;7912;51.376;6.126;2023-02-04T11:43:43;15.90;99.90
15625;DHT22;7912;51.376;6.126;2023-02-04T11:46:14;15.80;99.90
15625;DHT22;7912;51.376;6.126;2023-02-04T11:48:43;15.80;99.90
15625;DHT22;7912;51.376;6.126;2023-02-04T11:51:20;15.70;99.90
15625;DHT22;7912;51.376;6.126;2023-02-04T11:53:59;15.80;99.90
15625;DHT22;7912;51.376;6.126;2023-02-04T11:56:28;15.80;99.90
15625;DHT22;7912;51.376;6.126;2023-02-04T11:58:57;15.90;99.90
15625;DHT22;7912;51.376;6.126;2023-02-04T12:01:31;16.00;99.90
15625;DHT22;7912;51.376;6.126;2023-02-04T12:04:02;16.00;99.90
15625;DHT22;7912;51.376;6.126;2023-02-04T12:06:34;16.10;99.90
15625;DHT22;7912;51.376;6.126;2023-02-04T12:09:07;16.10;99.90
15625;DHT22;7912;51.376;6.126;2023-02-04T12:11:53;16.00;99.90
15625;DHT22;7912;51.376;6.126;2023-02-04T12:14:28;15.90;99.90
15625;DHT22;7912;51.376;6.126;2023-02-04T12:16:58;15.90;99.90
15625;DHT22;7912;51.376;6.126;2023-02-04T12:19:26;15.80;99.90
15625;DHT22;7912;51.376;6.126;2023-02-04T12:21:54;15.60;99.90
15625;DHT22;7912;51.376;6.126;2023-02-04T12:24:21;15.50;99.90
15625;DHT22;7912;51.376;6.126;2023-02-04T12:26:50;15.40;99.90
15625;DHT22;7912;51.376;6.126;2023-02-04T12:29:20;15.30;99.90
15625;DHT22;7912;51.376;6.126;2023-02-04T12:31:47;15.30;99.90
15625;DHT22;7912;51.376;6.126;2023-02-04T12:34:15;15.20;99.90
15625;DHT22;7912;51.376;6.126;2023-02-04T12:36:43;15.20;99.90
15625;DHT22;7912;51.376;6.126;2023-02-04T12:39:10;15.10;99.90
15625;DHT22;7912;51.376;6.126;2023-02-04T12:41:37;15.10;99.90
15625;DHT22;7912;51.376;6.126;2023-02-04T12:44:08;15.00;99.90
15625;DHT22;7912;51.376;6.126;2023-02-04T12:46:35;14.90;99.90
15625;DHT22;7912;51.376;6.126;2023-02-04T12:49:02;15.00;99.90
15625;DHT22;7912;51.376;6.126;2023-02-04T12:51:29;15.00;99.90
15625;DHT22;7912;51.376;6.126;2023-02-04T12:53:58;15.00;99.90
15625;DHT22;7912;51.376;6.126;2023-02-04T12:56:25;15.00;99.90
15625;DHT22;7912;51.376;6.126;2023-02-04T12:58:53;15.00;99.90
15625;DHT22;7912;51.376;6.126;2023-02-04T13:01:20;15.00;99.90
15625;DHT22;7912;51.376;6.126;2023-02-04T13:03:47;15.10;99.90
15625;DHT22;7912;51.376;6.126;2023-02-04T13:06:15;15.20;99.90
15625;DHT22;7912;51.376;6.126;2023-02-04T13:08:42;15.20;99.90
15625;DHT22;7912;51.376;6.126;2023-02-04T13:11:09;15.30;99.90
15625;DHT22;7912;51.376;6.126;2023-02-04T13:13:40;15.30;99.90
15625;DHT22;7912;51.376;6.126;2023-02-04T13:16:07;15.40;99.90
15625;DHT22;7912;51.376;6.126;2023-02-04T13:18:34;15.40;99.90
15625;DHT22;7912;51.376;6.126;2023-02-04T13:21:02;15.50;99.90
15625;DHT22;7912;51.376;6.126;2023-02-04T13:23:30;15.50;99.90
15625;DHT22;7912;51.376;6.126;2023-02-04T13:26:00;15.50;99.90
15625;DHT22;7912;51.376;6.126;2023-02-04T13:28:30;15.50;99.90
15625;DHT22;7912;51.376;6.126;2023-02-04T13:30:57;15.50;99.90
15625;DHT22;7912;51.376;6.126;2023-02-04T13:33:27;15.50;99.90
15625;DHT22;7912;51.376;6.126;2023-02-04T13:36:04;15.50;99.90
15625;DHT22;7912;51.376;6.126;2023-02-04T13:38:34;15.50;99.90
15625;DHT22;7912;51.376;6.126;2023-02-04T13:41:02;15.50;99.90
15625;DHT22;7912;51.376;6.126;2023-02-04T13:43:29;15.40;99.90
15625;DHT22;7912;51.376;6.126;2023-02-04T13:45:56;15.40;99.90
15625;DHT22;7912;51.376;6.126;2023-02-04T13:48:23;15.50;99.90
15625;DHT22;7912;51.376;6.126;2023-02-04T13:50:54;15.60;99.90
15625;DHT22;7912;51.376;6.126;2023-02-04T13:53:21;15.60;99.90
15625;DHT22;7912;51.376;6.126;2023-02-04T13:55:48;15.70;99.90
15625;DHT22;7912;51.376;6.126;2023-02-04T13:58:16;15.70;99.90
15625;DHT22;7912;51.376;6.126;2023-02-04T14:00:43;15.70;99.90
15625;DHT22;7912;51.376;6.126;2023-02-04T14:03:10;15.60;99.90
15625;DHT22;7912;51.376;6.126;2023-02-04T14:09:11;15.70;99.90
15625;DHT22;7912;51.376;6.126;2023-02-04T14:11:39;15.80;99.90
15625;DHT22;7912;51.376;6.126;2023-02-04T14:14:06;15.90;99.90
15625;DHT22;7912;51.376;6.126;2023-02-04T14:16:34;16.10;99.90
15625;DHT22;7912;51.376;6.126;2023-02-04T14:19:04;16.30;99.90
15625;DHT22;7912;51.376;6.126;2023-02-04T14:21:35;16.50;99.90
15625;DHT22;7912;51.376;6.126;2023-02-04T14:24:02;16.60;99.90
15625;DHT22;7912;51.376;6.126;2023-02-04T14:26:30;16.70;99.90
15625;DHT22;7912;51.376;6.126;2023-02-04T14:28:57;16.70;99.90
15625;DHT22;7912;51.376;6.126;2023-02-04T14:31:24;16.70;99.90
15625;DHT22;7912;51.376;6.126;2023-02-04T14:33:51;16.70;99.90
15625;DHT22;7912;51.376;6.126;2023-02-04T14:36:19;16.80;99.90
15625;DHT22;7912;51.376;6.126;2023-02-04T14:38:48;16.90;99.90
15625;DHT22;7912;51.376;6.126;2023-02-04T14:41:15;16.90;99.30
15625;DHT22;7912;51.376;6.126;2023-02-04T14:43:55;17.00;99.20
15625;DHT22;7912;51.376;6.126;2023-02-04T14:46:22;16.90;98.50
15625;DHT22;7912;51.376;6.126;2023-02-04T14:48:50;16.90;98.90
15625;DHT22;7912;51.376;6.126;2023-02-04T14:51:18;16.80;99.00
15625;DHT22;7912;51.376;6.126;2023-02-04T14:53:48;16.80;98.80
15625;DHT22;7912;51.376;6.126;2023-02-04T14:56:15;16.70;98.70
15625;DHT22;7912;51.376;6.126;2023-02-04T14:58:43;16.60;98.30
15625;DHT22;7912;51.376;6.126;2023-02-04T15:01:10;16.60;98.30
15625;DHT22;7912;51.376;6.126;2023-02-04T15:03:37;16.50;98.20
15625;DHT22;7912;51.376;6.126;2023-02-04T15:06:05;16.30;98.40
15625;DHT22;7912;51.376;6.126;2023-02-04T15:08:32;16.20;98.60
15625;DHT22;7912;51.376;6.126;2023-02-04T15:11:03;16.00;98.60
15625;DHT22;7912;51.376;6.126;2023-02-04T15:13:31;15.90;98.50
15625;DHT22;7912;51.376;6.126;2023-02-04T15:15:58;15.80;99.00
15625;DHT22;7912;51.376;6.126;2023-02-04T15:18:26;15.70;99.10
15625;DHT22;7912;51.376;6.126;2023-02-04T15:20:53;15.50;99.30
15625;DHT22;7912;51.376;6.126;2023-02-04T15:23:21;15.40;99.50
15625;DHT22;7912;51.376;6.126;2023-02-04T15:25:50;15.30;99.50
15625;DHT22;7912;51.376;6.126;2023-02-04T15:28:23;15.20;99.60
15625;DHT22;7912;51.376;6.126;2023-02-04T15:30:51;15.20;99.90
15625;DHT22;7912;51.376;6.126;2023-02-04T15:33:19;15.10;99.90
15625;DHT22;7912;51.376;6.126;2023-02-04T15:35:46;14.90;99.90
15625;DHT22;7912;51.376;6.126;2023-02-04T15:38:14;14.80;99.90
15625;DHT22;7912;51.376;6.126;2023-02-04T15:40:41;14.80;99.90
15625;DHT22;7912;51.376;6.126;2023-02-04T15:43:08;14.70;99.90
15625;DHT22;7912;51.376;6.126;2023-02-04T15:45:36;14.60;99.90
15625;DHT22;7912;51.376;6.126;2023-02-04T15:48:07;14.50;99.90
15625;DHT22;7912;51.376;6.126;2023-02-04T15:50:35;14.40;99.90
15625;DHT22;7912;51.376;6.126;2023-02-04T15:53:03;14.40;99.90
15625;DHT22;7912;51.376;6.126;2023-02-04T15:55:31;14.30;99.90
15625;DHT22;7912;51.376;6.126;2023-02-04T15:57:58;14.20;99.90
15625;DHT22;7912;51.376;6.126;2023-02-04T16:00:26;14.20;99.90
15625;DHT22;7912;51.376;6.126;2023-02-04T16:02:54;14.10;99.90
15625;DHT22;7912;51.376;6.126;2023-02-04T16:05:21;14.10;99.90
15625;DHT22;7912;51.376;6.126;2023-02-04T16:07:49;14.00;99.90
15625;DHT22;7912;51.376;6.126;2023-02-04T16:10:17;14.00;99.90
15625;DHT22;7912;51.376;6.126;2023-02-04T16:12:45;13.90;99.90
15625;DHT22;7912;51.376;6.126;2023-02-04T16:15:15;13.90;99.90
15625;DHT22;7912;51.376;6.126;2023-02-04T16:17:45;13.80;99.90
15625;DHT22;7912;51.376;6.126;2023-02-04T16:20:13;13.80;99.90
15625;DHT22;7912;51.376;6.126;2023-02-04T16:22:41;13.70;99.90
15625;DHT22;7912;51.376;6.126;2023-02-04T16:25:08;13.70;99.90